Terminal Aerodrome Forecast
Issued by NWS

Home | Current Version | Previous Version | Text Only | Print | Product List | Glossary On
Versions: 1 2 3 4 5 6 7 8 9 10 11 12 13 14 15 16 17
000
FTUS43 KBIS 300526
TAFDIK
TAF
KDIK 300526Z 3006/3106 18007KT 6SM FU FEW250
      TEMPO 3010/3014 3SM FU SCT030
     FM301500 19012KT P6SM SCT250
     FM302000 21014G20KT P6SM FEW250
     FM310100 32010KT P6SM SCT080 SCT150 BKN250=

USA.gov is the U.S. government's official web portal to all federal, state and local government web resources and services.